sensor_id;sensor_type;location;lat;lon;timestamp;P1;durP1;ratioP1;P2;durP2;ratioP2
39300;SDS011;25019;42.626;23.380;2023-04-03T00:01:35;1.40;;;1.07;;
39300;SDS011;25019;42.626;23.380;2023-04-03T00:04:05;3.43;;;1.60;;
39300;SDS011;25019;42.626;23.380;2023-04-03T00:06:31;1.80;;;1.37;;
39300;SDS011;25019;42.626;23.380;2023-04-03T00:08:57;2.93;;;1.60;;
39300;SDS011;25019;42.626;23.380;2023-04-03T00:11:23;2.47;;;1.37;;
39300;SDS011;25019;42.626;23.380;2023-04-03T00:13:49;3.27;;;2.00;;
39300;SDS011;25019;42.626;23.380;2023-04-03T00:16:15;2.30;;;1.50;;
39300;SDS011;25019;42.626;23.380;2023-04-03T00:18:41;3.50;;;1.43;;
39300;SDS011;25019;42.626;23.380;2023-04-03T00:21:07;3.20;;;1.80;;
39300;SDS011;25019;42.626;23.380;2023-04-03T00:23:34;2.83;;;1.80;;
39300;SDS011;25019;42.626;23.380;2023-04-03T00:26:00;2.57;;;1.73;;
39300;SDS011;25019;42.626;23.380;2023-04-03T00:28:26;2.23;;;1.40;;
39300;SDS011;25019;42.626;23.380;2023-04-03T00:30:52;2.33;;;2.07;;
39300;SDS011;25019;42.626;23.380;2023-04-03T00:33:17;3.83;;;1.87;;
39300;SDS011;25019;42.626;23.380;2023-04-03T00:35:47;3.43;;;1.43;;
39300;SDS011;25019;42.626;23.380;2023-04-03T00:38:13;3.33;;;1.73;;
39300;SDS011;25019;42.626;23.380;2023-04-03T00:40:41;2.17;;;1.50;;
39300;SDS011;25019;42.626;23.380;2023-04-03T00:43:10;3.13;;;1.70;;
39300;SDS011;25019;42.626;23.380;2023-04-03T00:45:43;2.27;;;1.63;;
39300;SDS011;25019;42.626;23.380;2023-04-03T00:48:11;2.73;;;1.90;;
39300;SDS011;25019;42.626;23.380;2023-04-03T00:50:41;3.63;;;1.97;;
39300;SDS011;25019;42.626;23.380;2023-04-03T00:53:10;4.67;;;1.60;;
39300;SDS011;25019;42.626;23.380;2023-04-03T00:55:38;3.73;;;1.83;;
39300;SDS011;25019;42.626;23.380;2023-04-03T00:58:04;3.17;;;2.03;;
39300;SDS011;25019;42.626;23.380;2023-04-03T01:00:32;2.73;;;1.60;;
39300;SDS011;25019;42.626;23.380;2023-04-03T01:02:58;2.50;;;1.63;;
39300;SDS011;25019;42.626;23.380;2023-04-03T01:05:25;3.70;;;1.90;;
39300;SDS011;25019;42.626;23.380;2023-04-03T01:07:51;3.10;;;1.73;;
39300;SDS011;25019;42.626;23.380;2023-04-03T01:10:18;2.90;;;1.90;;
39300;SDS011;25019;42.626;23.380;2023-04-03T01:12:47;2.37;;;1.43;;
39300;SDS011;25019;42.626;23.380;2023-04-03T01:15:23;3.27;;;1.53;;
39300;SDS011;25019;42.626;23.380;2023-04-03T01:17:52;2.77;;;1.60;;
39300;SDS011;25019;42.626;23.380;2023-04-03T01:28:06;2.17;;;1.57;;
39300;SDS011;25019;42.626;23.380;2023-04-03T01:30:45;1.93;;;1.30;;
39300;SDS011;25019;42.626;23.380;2023-04-03T01:33:26;2.00;;;1.57;;
39300;SDS011;25019;42.626;23.380;2023-04-03T01:35:52;1.60;;;1.33;;
39300;SDS011;25019;42.626;23.380;2023-04-03T01:38:18;2.33;;;1.53;;
39300;SDS011;25019;42.626;23.380;2023-04-03T01:40:43;2.33;;;1.23;;
39300;SDS011;25019;42.626;23.380;2023-04-03T01:43:09;1.90;;;1.27;;
39300;SDS011;25019;42.626;23.380;2023-04-03T01:45:35;2.57;;;1.23;;
39300;SDS011;25019;42.626;23.380;2023-04-03T01:48:03;1.97;;;1.00;;
39300;SDS011;25019;42.626;23.380;2023-04-03T01:50:29;2.53;;;1.23;;
39300;SDS011;25019;42.626;23.380;2023-04-03T01:52:55;3.80;;;1.80;;
39300;SDS011;25019;42.626;23.380;2023-04-03T01:55:21;2.37;;;1.80;;
39300;SDS011;25019;42.626;23.380;2023-04-03T01:57:47;3.43;;;1.67;;
39300;SDS011;25019;42.626;23.380;2023-04-03T02:00:13;2.63;;;1.40;;
39300;SDS011;25019;42.626;23.380;2023-04-03T02:02:39;1.80;;;1.30;;
39300;SDS011;25019;42.626;23.380;2023-04-03T02:05:05;2.30;;;1.57;;
39300;SDS011;25019;42.626;23.380;2023-04-03T02:07:31;2.47;;;1.97;;
39300;SDS011;25019;42.626;23.380;2023-04-03T02:09:57;1.20;;;1.10;;
39300;SDS011;25019;42.626;23.380;2023-04-03T02:12:23;2.57;;;1.30;;
39300;SDS011;25019;42.626;23.380;2023-04-03T02:14:49;4.20;;;1.60;;
39300;SDS011;25019;42.626;23.380;2023-04-03T02:17:15;2.70;;;1.60;;
39300;SDS011;25019;42.626;23.380;2023-04-03T02:19:40;2.23;;;1.43;;
39300;SDS011;25019;42.626;23.380;2023-04-03T02:22:06;2.83;;;1.77;;
39300;SDS011;25019;42.626;23.380;2023-04-03T02:24:32;2.20;;;1.53;;
39300;SDS011;25019;42.626;23.380;2023-04-03T02:26:58;1.57;;;1.37;;
39300;SDS011;25019;42.626;23.380;2023-04-03T02:29:24;2.60;;;1.33;;
39300;SDS011;25019;42.626;23.380;2023-04-03T02:31:50;1.70;;;1.50;;
39300;SDS011;25019;42.626;23.380;2023-04-03T02:34:17;2.27;;;1.80;;
39300;SDS011;25019;42.626;23.380;2023-04-03T02:36:43;2.30;;;1.53;;
39300;SDS011;25019;42.626;23.380;2023-04-03T02:39:11;2.17;;;1.47;;
39300;SDS011;25019;42.626;23.380;2023-04-03T02:41:37;2.33;;;1.57;;
39300;SDS011;25019;42.626;23.380;2023-04-03T02:44:09;2.87;;;2.00;;
39300;SDS011;25019;42.626;23.380;2023-04-03T02:46:35;3.73;;;2.10;;
39300;SDS011;25019;42.626;23.380;2023-04-03T02:49:02;3.10;;;2.13;;
39300;SDS011;25019;42.626;23.380;2023-04-03T02:51:28;3.87;;;2.00;;
39300;SDS011;25019;42.626;23.380;2023-04-03T02:53:54;2.30;;;1.60;;
39300;SDS011;25019;42.626;23.380;2023-04-03T02:56:24;2.87;;;2.00;;
39300;SDS011;25019;42.626;23.380;2023-04-03T02:58:49;4.40;;;1.90;;
39300;SDS011;25019;42.626;23.380;2023-04-03T03:01:17;3.20;;;2.00;;
39300;SDS011;25019;42.626;23.380;2023-04-03T03:03:42;3.50;;;2.00;;
39300;SDS011;25019;42.626;23.380;2023-04-03T03:06:11;3.50;;;1.73;;
39300;SDS011;25019;42.626;23.380;2023-04-03T03:08:39;3.03;;;2.17;;
39300;SDS011;25019;42.626;23.380;2023-04-03T03:11:06;2.53;;;1.90;;
39300;SDS011;25019;42.626;23.380;2023-04-03T03:13:32;3.73;;;1.97;;
39300;SDS011;25019;42.626;23.380;2023-04-03T03:15:58;2.20;;;1.60;;
39300;SDS011;25019;42.626;23.380;2023-04-03T03:18:24;5.47;;;2.10;;
39300;SDS011;25019;42.626;23.380;2023-04-03T03:21:00;3.37;;;1.93;;
39300;SDS011;25019;42.626;23.380;2023-04-03T03:23:27;3.30;;;1.77;;
39300;SDS011;25019;42.626;23.380;2023-04-03T03:25:58;2.53;;;1.70;;
39300;SDS011;25019;42.626;23.380;2023-04-03T03:28:25;2.80;;;1.90;;
39300;SDS011;25019;42.626;23.380;2023-04-03T03:30:52;3.80;;;2.10;;
39300;SDS011;25019;42.626;23.380;2023-04-03T03:33:19;4.20;;;2.20;;
39300;SDS011;25019;42.626;23.380;2023-04-03T03:35:45;3.20;;;1.83;;
39300;SDS011;25019;42.626;23.380;2023-04-03T03:38:11;2.57;;;1.80;;
39300;SDS011;25019;42.626;23.380;2023-04-03T03:40:37;5.40;;;1.70;;
39300;SDS011;25019;42.626;23.380;2023-04-03T03:43:03;1.60;;;1.50;;
39300;SDS011;25019;42.626;23.380;2023-04-03T03:45:30;3.17;;;2.20;;
39300;SDS011;25019;42.626;23.380;2023-04-03T03:47:56;3.80;;;1.90;;
39300;SDS011;25019;42.626;23.380;2023-04-03T03:50:22;3.23;;;2.23;;
39300;SDS011;25019;42.626;23.380;2023-04-03T03:52:48;3.30;;;2.30;;
39300;SDS011;25019;42.626;23.380;2023-04-03T03:55:14;3.13;;;1.90;;
39300;SDS011;25019;42.626;23.380;2023-04-03T03:57:40;3.13;;;1.93;;
39300;SDS011;25019;42.626;23.380;2023-04-03T04:00:06;2.67;;;1.80;;
39300;SDS011;25019;42.626;23.380;2023-04-03T04:02:40;4.07;;;1.97;;
39300;SDS011;25019;42.626;23.380;2023-04-03T04:05:07;4.13;;;2.13;;
39300;SDS011;25019;42.626;23.380;2023-04-03T04:07:34;2.47;;;1.80;;
39300;SDS011;25019;42.626;23.380;2023-04-03T04:10:03;1.77;;;1.60;;
39300;SDS011;25019;42.626;23.380;2023-04-03T04:12:30;2.63;;;1.97;;
39300;SDS011;25019;42.626;23.380;2023-04-03T04:14:56;4.00;;;1.93;;
39300;SDS011;25019;42.626;23.380;2023-04-03T04:17:22;3.00;;;1.90;;
39300;SDS011;25019;42.626;23.380;2023-04-03T04:19:49;2.73;;;2.07;;
39300;SDS011;25019;42.626;23.380;2023-04-03T04:22:15;4.37;;;2.43;;
39300;SDS011;25019;42.626;23.380;2023-04-03T04:24:41;3.07;;;2.10;;
39300;SDS011;25019;42.626;23.380;2023-04-03T04:27:08;4.57;;;2.27;;
39300;SDS011;25019;42.626;23.380;2023-04-03T04:29:34;5.80;;;2.30;;
39300;SDS011;25019;42.626;23.380;2023-04-03T04:32:05;3.77;;;2.00;;
39300;SDS011;25019;42.626;23.380;2023-04-03T04:34:31;3.43;;;1.83;;
39300;SDS011;25019;42.626;23.380;2023-04-03T04:36:57;2.73;;;1.90;;
39300;SDS011;25019;42.626;23.380;2023-04-03T04:39:24;3.57;;;2.00;;
39300;SDS011;25019;42.626;23.380;2023-04-03T04:41:51;5.23;;;2.60;;
39300;SDS011;25019;42.626;23.380;2023-04-03T04:44:17;2.70;;;2.00;;
39300;SDS011;25019;42.626;23.380;2023-04-03T04:46:43;8.10;;;2.63;;
39300;SDS011;25019;42.626;23.380;2023-04-03T04:49:09;3.47;;;2.37;;
39300;SDS011;25019;42.626;23.380;2023-04-03T04:51:35;5.80;;;2.67;;
39300;SDS011;25019;42.626;23.380;2023-04-03T04:54:01;6.00;;;3.00;;
39300;SDS011;25019;42.626;23.380;2023-04-03T04:56:29;4.87;;;2.40;;
39300;SDS011;25019;42.626;23.380;2023-04-03T04:58:56;3.10;;;2.33;;
39300;SDS011;25019;42.626;23.380;2023-04-03T05:01:22;8.60;;;2.83;;
39300;SDS011;25019;42.626;23.380;2023-04-03T05:04:03;3.17;;;2.33;;
39300;SDS011;25019;42.626;23.380;2023-04-03T05:06:29;4.33;;;2.00;;
39300;SDS011;25019;42.626;23.380;2023-04-03T05:08:58;4.70;;;2.20;;
39300;SDS011;25019;42.626;23.380;2023-04-03T05:11:24;3.60;;;2.90;;
39300;SDS011;25019;42.626;23.380;2023-04-03T05:13:51;4.30;;;3.03;;
39300;SDS011;25019;42.626;23.380;2023-04-03T05:16:17;6.50;;;3.10;;
39300;SDS011;25019;42.626;23.380;2023-04-03T05:18:43;5.27;;;2.70;;
39300;SDS011;25019;42.626;23.380;2023-04-03T05:21:15;3.07;;;2.23;;
39300;SDS011;25019;42.626;23.380;2023-04-03T05:23:44;6.00;;;2.90;;
39300;SDS011;25019;42.626;23.380;2023-04-03T05:26:10;13.93;;;3.30;;
39300;SDS011;25019;42.626;23.380;2023-04-03T05:28:37;9.23;;;3.07;;
39300;SDS011;25019;42.626;23.380;2023-04-03T05:31:03;4.57;;;2.43;;
39300;SDS011;25019;42.626;23.380;2023-04-03T05:33:33;5.17;;;2.73;;
39300;SDS011;25019;42.626;23.380;2023-04-03T05:36:14;8.37;;;2.80;;
39300;SDS011;25019;42.626;23.380;2023-04-03T05:38:44;7.03;;;3.00;;
39300;SDS011;25019;42.626;23.380;2023-04-03T05:41:10;7.20;;;3.67;;
39300;SDS011;25019;42.626;23.380;2023-04-03T05:43:35;6.43;;;3.10;;
39300;SDS011;25019;42.626;23.380;2023-04-03T05:46:08;9.27;;;3.50;;
39300;SDS011;25019;42.626;23.380;2023-04-03T05:48:38;8.77;;;3.87;;
39300;SDS011;25019;42.626;23.380;2023-04-03T05:51:05;11.07;;;3.23;;
39300;SDS011;25019;42.626;23.380;2023-04-03T05:53:32;5.87;;;3.13;;
39300;SDS011;25019;42.626;23.380;2023-04-03T05:56:03;8.07;;;3.10;;
39300;SDS011;25019;42.626;23.380;2023-04-03T05:58:33;6.77;;;3.47;;
39300;SDS011;25019;42.626;23.380;2023-04-03T06:00:59;10.23;;;3.10;;
39300;SDS011;25019;42.626;23.380;2023-04-03T06:03:25;6.60;;;3.30;;
39300;SDS011;25019;42.626;23.380;2023-04-03T06:05:51;7.23;;;3.10;;
39300;SDS011;25019;42.626;23.380;2023-04-03T06:08:17;8.10;;;3.50;;
39300;SDS011;25019;42.626;23.380;2023-04-03T06:10:44;6.40;;;3.40;;
39300;SDS011;25019;42.626;23.380;2023-04-03T06:13:10;6.57;;;3.60;;
39300;SDS011;25019;42.626;23.380;2023-04-03T06:15:36;5.90;;;3.43;;
39300;SDS011;25019;42.626;23.380;2023-04-03T06:18:02;7.07;;;3.50;;
39300;SDS011;25019;42.626;23.380;2023-04-03T06:20:27;9.73;;;3.73;;
39300;SDS011;25019;42.626;23.380;2023-04-03T06:22:53;11.07;;;3.80;;
39300;SDS011;25019;42.626;23.380;2023-04-03T06:25:19;6.93;;;4.07;;
39300;SDS011;25019;42.626;23.380;2023-04-03T06:27:45;9.40;;;4.17;;
39300;SDS011;25019;42.626;23.380;2023-04-03T06:30:11;8.77;;;5.10;;
39300;SDS011;25019;42.626;23.380;2023-04-03T06:32:37;9.40;;;4.70;;
39300;SDS011;25019;42.626;23.380;2023-04-03T06:35:04;8.53;;;4.30;;
39300;SDS011;25019;42.626;23.380;2023-04-03T06:37:30;12.67;;;4.63;;
39300;SDS011;25019;42.626;23.380;2023-04-03T06:39:57;11.73;;;4.10;;
39300;SDS011;25019;42.626;23.380;2023-04-03T06:42:25;7.07;;;3.60;;
39300;SDS011;25019;42.626;23.380;2023-04-03T06:44:57;6.37;;;3.90;;
39300;SDS011;25019;42.626;23.380;2023-04-03T06:47:23;5.40;;;3.43;;
39300;SDS011;25019;42.626;23.380;2023-04-03T06:49:49;7.40;;;4.50;;
39300;SDS011;25019;42.626;23.380;2023-04-03T06:52:14;4.80;;;2.67;;
39300;SDS011;25019;42.626;23.380;2023-04-03T06:54:40;4.37;;;2.60;;
39300;SDS011;25019;42.626;23.380;2023-04-03T06:57:06;3.97;;;2.63;;
39300;SDS011;25019;42.626;23.380;2023-04-03T06:59:33;8.47;;;3.53;;
39300;SDS011;25019;42.626;23.380;2023-04-03T07:01:59;5.60;;;2.67;;
39300;SDS011;25019;42.626;23.380;2023-04-03T07:04:25;4.20;;;2.27;;
39300;SDS011;25019;42.626;23.380;2023-04-03T07:06:51;4.20;;;2.60;;
39300;SDS011;25019;42.626;23.380;2023-04-03T07:09:17;5.60;;;2.77;;
39300;SDS011;25019;42.626;23.380;2023-04-03T07:11:43;6.77;;;2.97;;
39300;SDS011;25019;42.626;23.380;2023-04-03T07:14:09;6.33;;;4.37;;
39300;SDS011;25019;42.626;23.380;2023-04-03T07:16:35;9.53;;;3.90;;
39300;SDS011;25019;42.626;23.380;2023-04-03T07:19:02;7.57;;;4.80;;
39300;SDS011;25019;42.626;23.380;2023-04-03T07:21:28;13.00;;;5.17;;
39300;SDS011;25019;42.626;23.380;2023-04-03T07:23:54;8.93;;;4.60;;
39300;SDS011;25019;42.626;23.380;2023-04-03T07:26:20;7.47;;;4.73;;
39300;SDS011;25019;42.626;23.380;2023-04-03T07:28:47;8.00;;;4.70;;
39300;SDS011;25019;42.626;23.380;2023-04-03T07:31:16;10.60;;;5.57;;
39300;SDS011;25019;42.626;23.380;2023-04-03T07:33:42;11.87;;;5.17;;
39300;SDS011;25019;42.626;23.380;2023-04-03T07:36:09;8.90;;;5.23;;
39300;SDS011;25019;42.626;23.380;2023-04-03T07:38:36;10.40;;;4.73;;
39300;SDS011;25019;42.626;23.380;2023-04-03T07:41:02;10.80;;;4.93;;
39300;SDS011;25019;42.626;23.380;2023-04-03T07:43:28;9.10;;;4.60;;
39300;SDS011;25019;42.626;23.380;2023-04-03T07:45:54;11.60;;;5.57;;
39300;SDS011;25019;42.626;23.380;2023-04-03T07:48:20;8.03;;;5.80;;
39300;SDS011;25019;42.626;23.380;2023-04-03T07:50:48;12.50;;;6.37;;
39300;SDS011;25019;42.626;23.380;2023-04-03T07:53:14;10.63;;;5.83;;
39300;SDS011;25019;42.626;23.380;2023-04-03T07:55:41;10.63;;;5.83;;
39300;SDS011;25019;42.626;23.380;2023-04-03T07:58:13;8.57;;;6.60;;
39300;SDS011;25019;42.626;23.380;2023-04-03T08:00:40;10.53;;;6.10;;
39300;SDS011;25019;42.626;23.380;2023-04-03T08:03:07;11.67;;;7.47;;
39300;SDS011;25019;42.626;23.380;2023-04-03T08:05:38;12.30;;;6.70;;
39300;SDS011;25019;42.626;23.380;2023-04-03T08:08:06;10.37;;;7.73;;
39300;SDS011;25019;42.626;23.380;2023-04-03T08:10:32;12.27;;;7.53;;
39300;SDS011;25019;42.626;23.380;2023-04-03T08:12:59;10.03;;;7.30;;
39300;SDS011;25019;42.626;23.380;2023-04-03T08:15:24;13.77;;;7.17;;
39300;SDS011;25019;42.626;23.380;2023-04-03T08:17:50;16.33;;;8.03;;
39300;SDS011;25019;42.626;23.380;2023-04-03T08:20:17;13.60;;;8.77;;
39300;SDS011;25019;42.626;23.380;2023-04-03T08:22:42;13.40;;;8.70;;
39300;SDS011;25019;42.626;23.380;2023-04-03T08:25:08;18.87;;;11.27;;
39300;SDS011;25019;42.626;23.380;2023-04-03T08:27:34;14.37;;;10.70;;
39300;SDS011;25019;42.626;23.380;2023-04-03T08:30:00;17.73;;;9.90;;
39300;SDS011;25019;42.626;23.380;2023-04-03T08:32:26;16.57;;;9.47;;
39300;SDS011;25019;42.626;23.380;2023-04-03T08:34:52;15.50;;;9.37;;
39300;SDS011;25019;42.626;23.380;2023-04-03T08:37:18;17.37;;;8.50;;
39300;SDS011;25019;42.626;23.380;2023-04-03T08:39:44;14.90;;;8.37;;
39300;SDS011;25019;42.626;23.380;2023-04-03T08:42:21;18.60;;;8.73;;
39300;SDS011;25019;42.626;23.380;2023-04-03T08:44:58;13.63;;;7.77;;
39300;SDS011;25019;42.626;23.380;2023-04-03T08:47:34;17.00;;;8.03;;
39300;SDS011;25019;42.626;23.380;2023-04-03T08:50:23;8.70;;;6.90;;
39300;SDS011;25019;42.626;23.380;2023-04-03T08:52:58;10.93;;;7.00;;
39300;SDS011;25019;42.626;23.380;2023-04-03T08:55:39;15.67;;;7.70;;
39300;SDS011;25019;42.626;23.380;2023-04-03T08:58:15;17.00;;;7.67;;
39300;SDS011;25019;42.626;23.380;2023-04-03T09:00:45;18.13;;;7.40;;
39300;SDS011;25019;42.626;23.380;2023-04-03T09:03:15;14.13;;;7.03;;
39300;SDS011;25019;42.626;23.380;2023-04-03T09:08:33;11.77;;;6.93;;
39300;SDS011;25019;42.626;23.380;2023-04-03T09:11:19;14.20;;;6.87;;
39300;SDS011;25019;42.626;23.380;2023-04-03T09:13:54;11.13;;;7.03;;
39300;SDS011;25019;42.626;23.380;2023-04-03T09:16:47;9.27;;;6.13;;
39300;SDS011;25019;42.626;23.380;2023-04-03T09:21:56;9.80;;;5.37;;
39300;SDS011;25019;42.626;23.380;2023-04-03T09:24:22;9.87;;;5.97;;
39300;SDS011;25019;42.626;23.380;2023-04-03T09:26:53;9.47;;;5.40;;
39300;SDS011;25019;42.626;23.380;2023-04-03T09:29:25;7.93;;;4.23;;
39300;SDS011;25019;42.626;23.380;2023-04-03T09:31:57;5.37;;;3.80;;
39300;SDS011;25019;42.626;23.380;2023-04-03T09:34:35;8.20;;;4.83;;
39300;SDS011;25019;42.626;23.380;2023-04-03T09:37:03;10.37;;;5.23;;
39300;SDS011;25019;42.626;23.380;2023-04-03T09:39:31;7.13;;;4.07;;
39300;SDS011;25019;42.626;23.380;2023-04-03T09:42:23;4.67;;;3.40;;
39300;SDS011;25019;42.626;23.380;2023-04-03T09:44:54;4.80;;;3.03;;
39300;SDS011;25019;42.626;23.380;2023-04-03T09:49:50;6.00;;;4.30;;
39300;SDS011;25019;42.626;23.380;2023-04-03T09:52:20;9.43;;;4.67;;
39300;SDS011;25019;42.626;23.380;2023-04-03T09:54:51;7.60;;;4.37;;
39300;SDS011;25019;42.626;23.380;2023-04-03T09:57:17;9.17;;;4.40;;
39300;SDS011;25019;42.626;23.380;2023-04-03T09:59:47;7.10;;;3.83;;
39300;SDS011;25019;42.626;23.380;2023-04-03T10:02:36;4.23;;;2.60;;
39300;SDS011;25019;42.626;23.380;2023-04-03T10:05:05;6.47;;;2.77;;
39300;SDS011;25019;42.626;23.380;2023-04-03T10:10:38;4.97;;;2.33;;
39300;SDS011;25019;42.626;23.380;2023-04-03T10:13:12;7.77;;;2.80;;
39300;SDS011;25019;42.626;23.380;2023-04-03T10:15:49;4.70;;;2.80;;
39300;SDS011;25019;42.626;23.380;2023-04-03T10:20:57;3.80;;;2.60;;
39300;SDS011;25019;42.626;23.380;2023-04-03T10:23:44;6.37;;;2.63;;
39300;SDS011;25019;42.626;23.380;2023-04-03T10:27:02;5.23;;;2.30;;
39300;SDS011;25019;42.626;23.380;2023-04-03T10:34:40;2.90;;;1.93;;
39300;SDS011;25019;42.626;23.380;2023-04-03T10:42:47;3.07;;;2.30;;
39300;SDS011;25019;42.626;23.380;2023-04-03T10:48:22;3.50;;;2.17;;
39300;SDS011;25019;42.626;23.380;2023-04-03T10:59:47;2.70;;;1.80;;
39300;SDS011;25019;42.626;23.380;2023-04-03T11:02:21;5.03;;;2.97;;
39300;SDS011;25019;42.626;23.380;2023-04-03T11:04:51;4.40;;;2.33;;
39300;SDS011;25019;42.626;23.380;2023-04-03T11:07:29;6.20;;;2.63;;
39300;SDS011;25019;42.626;23.380;2023-04-03T11:10:03;4.17;;;2.50;;
39300;SDS011;25019;42.626;23.380;2023-04-03T11:12:44;4.33;;;2.60;;
39300;SDS011;25019;42.626;23.380;2023-04-03T11:15:15;3.60;;;2.70;;
39300;SDS011;25019;42.626;23.380;2023-04-03T11:17:48;4.83;;;2.93;;
39300;SDS011;25019;42.626;23.380;2023-04-03T11:20:20;4.13;;;2.97;;
39300;SDS011;25019;42.626;23.380;2023-04-03T11:25:29;9.27;;;3.97;;
39300;SDS011;25019;42.626;23.380;2023-04-03T11:27:58;4.57;;;3.33;;
39300;SDS011;25019;42.626;23.380;2023-04-03T11:35:44;7.57;;;4.30;;
39300;SDS011;25019;42.626;23.380;2023-04-03T11:38:15;5.13;;;3.50;;
39300;SDS011;25019;42.626;23.380;2023-04-03T11:40:47;4.63;;;3.73;;
39300;SDS011;25019;42.626;23.380;2023-04-03T11:43:24;4.30;;;3.90;;
39300;SDS011;25019;42.626;23.380;2023-04-03T11:50:57;4.97;;;4.30;;
39300;SDS011;25019;42.626;23.380;2023-04-03T11:53:29;4.63;;;3.47;;
39300;SDS011;25019;42.626;23.380;2023-04-03T11:56:00;4.73;;;4.00;;
39300;SDS011;25019;42.626;23.380;2023-04-03T11:58:28;5.80;;;4.03;;
39300;SDS011;25019;42.626;23.380;2023-04-03T12:11:41;5.13;;;4.20;;
39300;SDS011;25019;42.626;23.380;2023-04-03T12:16:32;5.00;;;4.50;;
39300;SDS011;25019;42.626;23.380;2023-04-03T12:29:33;6.37;;;5.10;;
39300;SDS011;25019;42.626;23.380;2023-04-03T12:32:23;6.40;;;4.90;;
39300;SDS011;25019;42.626;23.380;2023-04-03T12:35:06;8.37;;;4.87;;
39300;SDS011;25019;42.626;23.380;2023-04-03T12:43:30;10.67;;;6.67;;
39300;SDS011;25019;42.626;23.380;2023-04-03T12:54:01;8.97;;;6.73;;
39300;SDS011;25019;42.626;23.380;2023-04-03T12:56:29;9.37;;;6.70;;
39300;SDS011;25019;42.626;23.380;2023-04-03T12:59:18;7.60;;;5.93;;
39300;SDS011;25019;42.626;23.380;2023-04-03T13:02:02;9.87;;;5.90;;
39300;SDS011;25019;42.626;23.380;2023-04-03T13:04:28;8.13;;;6.30;;
39300;SDS011;25019;42.626;23.380;2023-04-03T13:06:55;8.47;;;6.93;;
39300;SDS011;25019;42.626;23.380;2023-04-03T13:14:24;9.70;;;7.67;;
39300;SDS011;25019;42.626;23.380;2023-04-03T13:16:57;10.00;;;7.63;;
39300;SDS011;25019;42.626;23.380;2023-04-03T13:19:35;9.33;;;7.43;;
39300;SDS011;25019;42.626;23.380;2023-04-03T13:22:47;9.70;;;6.53;;
39300;SDS011;25019;42.626;23.380;2023-04-03T13:24:50;8.17;;;7.37;;
39300;SDS011;25019;42.626;23.380;2023-04-03T13:27:19;8.60;;;6.70;;
39300;SDS011;25019;42.626;23.380;2023-04-03T13:29:48;9.27;;;6.80;;
39300;SDS011;25019;42.626;23.380;2023-04-03T13:32:21;7.90;;;6.67;;
39300;SDS011;25019;42.626;23.380;2023-04-03T13:34:49;10.77;;;7.83;;
39300;SDS011;25019;42.626;23.380;2023-04-03T13:37:19;8.20;;;7.07;;
39300;SDS011;25019;42.626;23.380;2023-04-03T13:39:55;9.30;;;7.37;;
39300;SDS011;25019;42.626;23.380;2023-04-03T13:42:30;11.53;;;8.63;;
39300;SDS011;25019;42.626;23.380;2023-04-03T13:47:39;8.50;;;7.53;;
39300;SDS011;25019;42.626;23.380;2023-04-03T13:52:51;11.33;;;7.87;;
39300;SDS011;25019;42.626;23.380;2023-04-03T13:55:26;10.67;;;7.27;;
39300;SDS011;25019;42.626;23.380;2023-04-03T14:00:29;7.57;;;6.50;;
39300;SDS011;25019;42.626;23.380;2023-04-03T14:02:59;10.97;;;7.90;;
39300;SDS011;25019;42.626;23.380;2023-04-03T14:05:25;12.03;;;7.67;;
39300;SDS011;25019;42.626;23.380;2023-04-03T14:07:52;10.27;;;8.50;;
39300;SDS011;25019;42.626;23.380;2023-04-03T14:10:20;11.83;;;9.40;;
39300;SDS011;25019;42.626;23.380;2023-04-03T14:12:46;12.70;;;9.40;;
39300;SDS011;25019;42.626;23.380;2023-04-03T14:15:18;12.13;;;9.33;;
39300;SDS011;25019;42.626;23.380;2023-04-03T14:17:48;11.07;;;7.67;;
39300;SDS011;25019;42.626;23.380;2023-04-03T14:20:17;8.83;;;7.43;;
39300;SDS011;25019;42.626;23.380;2023-04-03T14:22:47;8.17;;;6.90;;
39300;SDS011;25019;42.626;23.380;2023-04-03T14:25:14;8.60;;;6.60;;
39300;SDS011;25019;42.626;23.380;2023-04-03T14:27:42;8.13;;;6.27;;
39300;SDS011;25019;42.626;23.380;2023-04-03T14:30:12;8.97;;;6.63;;
39300;SDS011;25019;42.626;23.380;2023-04-03T14:32:41;10.23;;;6.77;;
39300;SDS011;25019;42.626;23.380;2023-04-03T14:35:07;9.93;;;7.20;;
39300;SDS011;25019;42.626;23.380;2023-04-03T14:37:33;9.13;;;6.90;;
39300;SDS011;25019;42.626;23.380;2023-04-03T14:39:59;7.70;;;6.80;;
39300;SDS011;25019;42.626;23.380;2023-04-03T14:42:28;7.87;;;6.17;;
39300;SDS011;25019;42.626;23.380;2023-04-03T14:44:56;7.83;;;5.90;;
39300;SDS011;25019;42.626;23.380;2023-04-03T14:47:24;8.77;;;6.77;;
39300;SDS011;25019;42.626;23.380;2023-04-03T14:49:51;8.37;;;6.30;;
39300;SDS011;25019;42.626;23.380;2023-04-03T14:52:21;8.30;;;6.07;;
39300;SDS011;25019;42.626;23.380;2023-04-03T14:54:51;6.60;;;4.97;;
39300;SDS011;25019;42.626;23.380;2023-04-03T14:57:17;6.20;;;5.60;;
39300;SDS011;25019;42.626;23.380;2023-04-03T14:59:44;8.30;;;5.60;;
39300;SDS011;25019;42.626;23.380;2023-04-03T15:05:03;6.80;;;5.63;;
39300;SDS011;25019;42.626;23.380;2023-04-03T15:07:35;6.97;;;5.97;;
39300;SDS011;25019;42.626;23.380;2023-04-03T15:10:14;9.00;;;6.70;;
39300;SDS011;25019;42.626;23.380;2023-04-03T15:12:40;7.97;;;6.53;;
39300;SDS011;25019;42.626;23.380;2023-04-03T15:15:06;8.77;;;7.10;;
39300;SDS011;25019;42.626;23.380;2023-04-03T15:17:32;8.90;;;7.50;;
39300;SDS011;25019;42.626;23.380;2023-04-03T15:19:59;8.53;;;7.10;;
39300;SDS011;25019;42.626;23.380;2023-04-03T15:22:25;10.13;;;7.90;;
39300;SDS011;25019;42.626;23.380;2023-04-03T15:24:51;9.90;;;7.40;;
39300;SDS011;25019;42.626;23.380;2023-04-03T15:27:17;9.27;;;7.90;;
39300;SDS011;25019;42.626;23.380;2023-04-03T15:29:43;8.57;;;7.53;;
39300;SDS011;25019;42.626;23.380;2023-04-03T15:32:10;10.13;;;7.73;;
39300;SDS011;25019;42.626;23.380;2023-04-03T15:34:37;11.63;;;8.53;;
39300;SDS011;25019;42.626;23.380;2023-04-03T15:37:02;11.20;;;7.40;;
39300;SDS011;25019;42.626;23.380;2023-04-03T15:39:28;11.83;;;7.93;;
39300;SDS011;25019;42.626;23.380;2023-04-03T15:41:54;11.30;;;7.50;;
39300;SDS011;25019;42.626;23.380;2023-04-03T15:44:20;10.17;;;7.10;;
39300;SDS011;25019;42.626;23.380;2023-04-03T15:46:46;10.27;;;7.40;;
39300;SDS011;25019;42.626;23.380;2023-04-03T15:49:17;10.60;;;6.97;;
39300;SDS011;25019;42.626;23.380;2023-04-03T15:51:44;8.40;;;6.47;;
39300;SDS011;25019;42.626;23.380;2023-04-03T15:54:10;9.20;;;6.57;;
39300;SDS011;25019;42.626;23.380;2023-04-03T15:56:35;7.63;;;6.43;;
39300;SDS011;25019;42.626;23.380;2023-04-03T15:59:01;9.77;;;6.97;;
39300;SDS011;25019;42.626;23.380;2023-04-03T16:01:27;9.23;;;6.77;;
39300;SDS011;25019;42.626;23.380;2023-04-03T16:03:53;9.57;;;6.73;;
39300;SDS011;25019;42.626;23.380;2023-04-03T16:06:19;8.50;;;7.17;;
39300;SDS011;25019;42.626;23.380;2023-04-03T16:08:45;8.20;;;7.10;;
39300;SDS011;25019;42.626;23.380;2023-04-03T16:11:12;9.67;;;7.10;;
39300;SDS011;25019;42.626;23.380;2023-04-03T16:13:38;13.67;;;8.73;;
39300;SDS011;25019;42.626;23.380;2023-04-03T16:16:04;11.37;;;7.57;;
39300;SDS011;25019;42.626;23.380;2023-04-03T16:18:30;9.13;;;6.33;;
39300;SDS011;25019;42.626;23.380;2023-04-03T16:20:56;9.90;;;6.53;;
39300;SDS011;25019;42.626;23.380;2023-04-03T16:23:23;7.10;;;5.50;;
39300;SDS011;25019;42.626;23.380;2023-04-03T16:25:48;7.57;;;5.90;;
39300;SDS011;25019;42.626;23.380;2023-04-03T16:28:15;8.87;;;6.03;;
39300;SDS011;25019;42.626;23.380;2023-04-03T16:30:42;10.63;;;7.27;;